sensor_id;sensor_type;location;lat;lon;timestamp;temperature;humidity
1361;DHT22;674;45.552;-122.600;2023-11-19T00:01:38;9.10;1.00
1361;DHT22;674;45.552;-122.600;2023-11-19T00:04:07;9.10;1.00
1361;DHT22;674;45.552;-122.600;2023-11-19T00:06:36;9.10;1.00
1361;DHT22;674;45.552;-122.600;2023-11-19T00:09:05;9.10;1.00
1361;DHT22;674;45.552;-122.600;2023-11-19T00:11:34;9.10;1.00
1361;DHT22;674;45.552;-122.600;2023-11-19T00:14:02;9.40;1.00
1361;DHT22;674;45.552;-122.600;2023-11-19T00:16:32;9.00;1.00
1361;DHT22;674;45.552;-122.600;2023-11-19T00:19:00;9.00;1.00
1361;DHT22;674;45.552;-122.600;2023-11-19T00:21:29;8.80;1.00
1361;DHT22;674;45.552;-122.600;2023-11-19T00:23:57;9.00;1.00
1361;DHT22;674;45.552;-122.600;2023-11-19T00:26:26;9.00;1.00
1361;DHT22;674;45.552;-122.600;2023-11-19T00:28:55;8.90;1.00
1361;DHT22;674;45.552;-122.600;2023-11-19T00:31:24;8.80;1.00
1361;DHT22;674;45.552;-122.600;2023-11-19T00:33:56;8.70;1.00
1361;DHT22;674;45.552;-122.600;2023-11-19T00:36:25;8.70;1.00
1361;DHT22;674;45.552;-122.600;2023-11-19T00:38:53;8.40;1.00
1361;DHT22;674;45.552;-122.600;2023-11-19T00:41:22;8.60;1.00
1361;DHT22;674;45.552;-122.600;2023-11-19T00:43:50;8.50;1.00
1361;DHT22;674;45.552;-122.600;2023-11-19T00:46:19;8.30;1.00
1361;DHT22;674;45.552;-122.600;2023-11-19T00:48:48;8.40;1.00
1361;DHT22;674;45.552;-122.600;2023-11-19T00:51:17;8.40;1.00
1361;DHT22;674;45.552;-122.600;2023-11-19T00:53:45;8.40;1.00
1361;DHT22;674;45.552;-122.600;2023-11-19T00:56:14;8.20;1.00
1361;DHT22;674;45.552;-122.600;2023-11-19T00:58:42;8.50;1.00
1361;DHT22;674;45.552;-122.600;2023-11-19T01:01:13;8.00;1.00
1361;DHT22;674;45.552;-122.600;2023-11-19T01:03:42;8.10;1.00
1361;DHT22;674;45.552;-122.600;2023-11-19T01:06:11;8.10;1.00
1361;DHT22;674;45.552;-122.600;2023-11-19T01:08:40;8.30;1.00
1361;DHT22;674;45.552;-122.600;2023-11-19T01:11:20;8.10;1.00
1361;DHT22;674;45.552;-122.600;2023-11-19T01:13:49;8.00;1.00
1361;DHT22;674;45.552;-122.600;2023-11-19T01:16:18;8.00;1.00
1361;DHT22;674;45.552;-122.600;2023-11-19T01:18:48;8.20;1.00
1361;DHT22;674;45.552;-122.600;2023-11-19T01:21:17;7.90;1.00
1361;DHT22;674;45.552;-122.600;2023-11-19T01:23:46;7.80;1.00
1361;DHT22;674;45.552;-122.600;2023-11-19T01:26:14;7.90;1.00
1361;DHT22;674;45.552;-122.600;2023-11-19T01:28:43;7.60;1.00
1361;DHT22;674;45.552;-122.600;2023-11-19T01:31:15;7.70;1.00
1361;DHT22;674;45.552;-122.600;2023-11-19T01:33:44;7.60;1.00
1361;DHT22;674;45.552;-122.600;2023-11-19T01:36:14;7.60;1.00
1361;DHT22;674;45.552;-122.600;2023-11-19T01:38:43;7.70;1.00
1361;DHT22;674;45.552;-122.600;2023-11-19T01:41:12;7.60;1.00
1361;DHT22;674;45.552;-122.600;2023-11-19T01:43:41;7.60;1.00
1361;DHT22;674;45.552;-122.600;2023-11-19T01:46:09;7.50;1.00
1361;DHT22;674;45.552;-122.600;2023-11-19T01:48:45;7.50;4.60
1361;DHT22;674;45.552;-122.600;2023-11-19T01:51:14;7.70;9.00
1361;DHT22;674;45.552;-122.600;2023-11-19T01:53:44;7.20;8.70
1361;DHT22;674;45.552;-122.600;2023-11-19T01:56:15;7.20;16.20
1361;DHT22;674;45.552;-122.600;2023-11-19T01:58:44;7.40;33.80
1361;DHT22;674;45.552;-122.600;2023-11-19T02:01:14;7.20;35.40
1361;DHT22;674;45.552;-122.600;2023-11-19T02:03:43;7.30;53.50
1361;DHT22;674;45.552;-122.600;2023-11-19T02:06:12;7.20;58.10
1361;DHT22;674;45.552;-122.600;2023-11-19T02:08:41;7.30;65.80
1361;DHT22;674;45.552;-122.600;2023-11-19T02:11:11;7.20;68.90
1361;DHT22;674;45.552;-122.600;2023-11-19T02:13:41;6.90;73.70
1361;DHT22;674;45.552;-122.600;2023-11-19T02:16:09;7.00;81.00
1361;DHT22;674;45.552;-122.600;2023-11-19T02:18:39;6.90;87.50
1361;DHT22;674;45.552;-122.600;2023-11-19T02:21:07;6.90;90.50
1361;DHT22;674;45.552;-122.600;2023-11-19T02:23:38;7.00;93.50
1361;DHT22;674;45.552;-122.600;2023-11-19T02:26:28;6.90;98.30
1361;DHT22;674;45.552;-122.600;2023-11-19T02:28:57;6.90;99.10
1361;DHT22;674;45.552;-122.600;2023-11-19T02:31:26;6.90;99.90
1361;DHT22;674;45.552;-122.600;2023-11-19T02:33:55;6.90;99.90
1361;DHT22;674;45.552;-122.600;2023-11-19T02:36:24;6.90;99.90
1361;DHT22;674;45.552;-122.600;2023-11-19T02:38:52;6.90;99.90
1361;DHT22;674;45.552;-122.600;2023-11-19T02:41:21;7.00;99.90
1361;DHT22;674;45.552;-122.600;2023-11-19T02:43:49;6.90;99.90
1361;DHT22;674;45.552;-122.600;2023-11-19T02:46:18;6.90;99.90
1361;DHT22;674;45.552;-122.600;2023-11-19T02:48:47;6.80;99.90
1361;DHT22;674;45.552;-122.600;2023-11-19T02:51:16;6.90;99.90
1361;DHT22;674;45.552;-122.600;2023-11-19T02:53:46;6.90;99.90
1361;DHT22;674;45.552;-122.600;2023-11-19T02:56:16;6.90;99.90
1361;DHT22;674;45.552;-122.600;2023-11-19T02:58:48;7.00;99.90
1361;DHT22;674;45.552;-122.600;2023-11-19T03:01:26;6.90;99.90
1361;DHT22;674;45.552;-122.600;2023-11-19T03:04:02;6.90;99.90
1361;DHT22;674;45.552;-122.600;2023-11-19T03:06:32;6.80;99.90
1361;DHT22;674;45.552;-122.600;2023-11-19T03:09:00;6.80;99.90
1361;DHT22;674;45.552;-122.600;2023-11-19T03:11:34;6.80;99.90
1361;DHT22;674;45.552;-122.600;2023-11-19T03:14:02;6.80;99.90
1361;DHT22;674;45.552;-122.600;2023-11-19T03:16:31;7.10;99.90
1361;DHT22;674;45.552;-122.600;2023-11-19T03:19:01;7.00;99.90
1361;DHT22;674;45.552;-122.600;2023-11-19T03:21:30;6.80;99.90
1361;DHT22;674;45.552;-122.600;2023-11-19T03:23:59;6.80;99.90
1361;DHT22;674;45.552;-122.600;2023-11-19T03:26:31;6.80;99.90
1361;DHT22;674;45.552;-122.600;2023-11-19T03:29:02;6.70;99.90
1361;DHT22;674;45.552;-122.600;2023-11-19T03:31:31;6.90;99.90
1361;DHT22;674;45.552;-122.600;2023-11-19T03:34:00;6.80;99.90
1361;DHT22;674;45.552;-122.600;2023-11-19T03:36:37;6.80;99.90
1361;DHT22;674;45.552;-122.600;2023-11-19T03:39:05;6.80;99.90
1361;DHT22;674;45.552;-122.600;2023-11-19T03:41:34;6.90;99.90
1361;DHT22;674;45.552;-122.600;2023-11-19T03:44:06;6.80;99.90
1361;DHT22;674;45.552;-122.600;2023-11-19T03:46:34;6.80;99.90
1361;DHT22;674;45.552;-122.600;2023-11-19T03:49:04;6.90;99.90
1361;DHT22;674;45.552;-122.600;2023-11-19T03:51:35;7.00;99.90
1361;DHT22;674;45.552;-122.600;2023-11-19T03:54:04;6.80;99.90
1361;DHT22;674;45.552;-122.600;2023-11-19T03:56:32;6.80;99.90
1361;DHT22;674;45.552;-122.600;2023-11-19T03:59:01;6.80;99.90
1361;DHT22;674;45.552;-122.600;2023-11-19T04:01:30;6.90;99.90
1361;DHT22;674;45.552;-122.600;2023-11-19T04:03:59;6.90;99.90
1361;DHT22;674;45.552;-122.600;2023-11-19T04:06:27;6.90;99.90
1361;DHT22;674;45.552;-122.600;2023-11-19T04:08:56;6.70;99.90
1361;DHT22;674;45.552;-122.600;2023-11-19T04:11:25;6.70;99.90
1361;DHT22;674;45.552;-122.600;2023-11-19T04:13:53;6.70;99.90
1361;DHT22;674;45.552;-122.600;2023-11-19T04:16:31;6.90;99.90
1361;DHT22;674;45.552;-122.600;2023-11-19T04:19:00;6.70;99.90
1361;DHT22;674;45.552;-122.600;2023-11-19T04:21:29;6.90;99.90
1361;DHT22;674;45.552;-122.600;2023-11-19T04:23:58;6.80;99.90
1361;DHT22;674;45.552;-122.600;2023-11-19T04:26:27;6.60;99.90
1361;DHT22;674;45.552;-122.600;2023-11-19T04:28:55;6.70;99.90
1361;DHT22;674;45.552;-122.600;2023-11-19T04:31:29;7.00;99.90
1361;DHT22;674;45.552;-122.600;2023-11-19T04:33:59;6.70;99.90
1361;DHT22;674;45.552;-122.600;2023-11-19T04:36:28;6.90;99.90
1361;DHT22;674;45.552;-122.600;2023-11-19T04:38:57;6.70;99.90
1361;DHT22;674;45.552;-122.600;2023-11-19T04:41:27;7.00;99.90
1361;DHT22;674;45.552;-122.600;2023-11-19T04:43:56;6.80;99.90
1361;DHT22;674;45.552;-122.600;2023-11-19T04:46:25;6.80;99.90
1361;DHT22;674;45.552;-122.600;2023-11-19T04:48:53;6.90;99.90
1361;DHT22;674;45.552;-122.600;2023-11-19T04:51:22;6.90;99.90
1361;DHT22;674;45.552;-122.600;2023-11-19T04:53:50;6.80;99.90
1361;DHT22;674;45.552;-122.600;2023-11-19T04:56:19;6.80;99.90
1361;DHT22;674;45.552;-122.600;2023-11-19T04:58:50;6.90;99.90
1361;DHT22;674;45.552;-122.600;2023-11-19T05:01:18;6.90;99.90
1361;DHT22;674;45.552;-122.600;2023-11-19T05:03:47;6.90;99.90
1361;DHT22;674;45.552;-122.600;2023-11-19T05:06:16;6.90;99.90
1361;DHT22;674;45.552;-122.600;2023-11-19T05:08:45;6.80;99.90
1361;DHT22;674;45.552;-122.600;2023-11-19T05:11:13;6.80;99.90
1361;DHT22;674;45.552;-122.600;2023-11-19T05:13:46;6.80;99.90
1361;DHT22;674;45.552;-122.600;2023-11-19T05:16:14;6.80;99.90
1361;DHT22;674;45.552;-122.600;2023-11-19T05:18:43;6.90;99.90
1361;DHT22;674;45.552;-122.600;2023-11-19T05:21:13;7.00;99.90
1361;DHT22;674;45.552;-122.600;2023-11-19T05:23:41;7.20;99.90
1361;DHT22;674;45.552;-122.600;2023-11-19T05:26:16;6.90;99.90
1361;DHT22;674;45.552;-122.600;2023-11-19T05:28:45;7.10;99.90
1361;DHT22;674;45.552;-122.600;2023-11-19T05:31:15;7.20;99.90
1361;DHT22;674;45.552;-122.600;2023-11-19T05:33:44;7.20;99.90
1361;DHT22;674;45.552;-122.600;2023-11-19T05:36:13;7.20;99.90
1361;DHT22;674;45.552;-122.600;2023-11-19T05:38:42;7.20;99.90
1361;DHT22;674;45.552;-122.600;2023-11-19T05:41:10;7.30;99.90
1361;DHT22;674;45.552;-122.600;2023-11-19T05:43:39;7.30;99.90
1361;DHT22;674;45.552;-122.600;2023-11-19T05:46:08;7.30;99.90
1361;DHT22;674;45.552;-122.600;2023-11-19T05:48:40;7.30;99.90
1361;DHT22;674;45.552;-122.600;2023-11-19T05:51:08;7.30;99.90
1361;DHT22;674;45.552;-122.600;2023-11-19T05:53:37;7.30;99.90
1361;DHT22;674;45.552;-122.600;2023-11-19T05:56:05;7.40;99.90
1361;DHT22;674;45.552;-122.600;2023-11-19T05:58:37;7.20;99.90
1361;DHT22;674;45.552;-122.600;2023-11-19T06:01:08;7.40;99.90
1361;DHT22;674;45.552;-122.600;2023-11-19T06:03:37;7.80;99.90
1361;DHT22;674;45.552;-122.600;2023-11-19T06:06:06;7.50;99.90
1361;DHT22;674;45.552;-122.600;2023-11-19T06:08:35;7.60;99.90
1361;DHT22;674;45.552;-122.600;2023-11-19T06:11:03;7.30;99.90
1361;DHT22;674;45.552;-122.600;2023-11-19T06:13:32;7.40;99.90
1361;DHT22;674;45.552;-122.600;2023-11-19T06:16:01;7.70;99.90
1361;DHT22;674;45.552;-122.600;2023-11-19T06:18:30;7.40;99.90
1361;DHT22;674;45.552;-122.600;2023-11-19T06:20:59;7.50;99.90
1361;DHT22;674;45.552;-122.600;2023-11-19T06:23:28;7.50;99.90
1361;DHT22;674;45.552;-122.600;2023-11-19T06:25:56;7.50;99.90
1361;DHT22;674;45.552;-122.600;2023-11-19T06:28:25;7.50;99.90
1361;DHT22;674;45.552;-122.600;2023-11-19T06:30:54;7.60;99.90
1361;DHT22;674;45.552;-122.600;2023-11-19T06:33:22;7.60;99.90
1361;DHT22;674;45.552;-122.600;2023-11-19T06:35:51;7.60;99.90
1361;DHT22;674;45.552;-122.600;2023-11-19T06:38:20;7.60;99.90
1361;DHT22;674;45.552;-122.600;2023-11-19T06:40:48;7.60;99.90
1361;DHT22;674;45.552;-122.600;2023-11-19T06:43:20;7.60;99.90
1361;DHT22;674;45.552;-122.600;2023-11-19T06:45:49;7.70;99.90
1361;DHT22;674;45.552;-122.600;2023-11-19T06:48:18;7.70;99.90
1361;DHT22;674;45.552;-122.600;2023-11-19T06:50:47;7.80;99.90
1361;DHT22;674;45.552;-122.600;2023-11-19T06:53:15;7.80;99.90
1361;DHT22;674;45.552;-122.600;2023-11-19T06:55:44;7.80;99.90
1361;DHT22;674;45.552;-122.600;2023-11-19T06:58:12;7.80;99.90
1361;DHT22;674;45.552;-122.600;2023-11-19T07:00:41;7.80;99.90
1361;DHT22;674;45.552;-122.600;2023-11-19T07:03:10;7.90;99.90
1361;DHT22;674;45.552;-122.600;2023-11-19T07:05:38;7.90;99.90
1361;DHT22;674;45.552;-122.600;2023-11-19T07:08:07;8.20;99.90
1361;DHT22;674;45.552;-122.600;2023-11-19T07:10:35;7.90;99.90
1361;DHT22;674;45.552;-122.600;2023-11-19T07:13:04;8.00;99.90
1361;DHT22;674;45.552;-122.600;2023-11-19T07:15:33;8.00;99.90
1361;DHT22;674;45.552;-122.600;2023-11-19T07:18:02;8.00;99.90
1361;DHT22;674;45.552;-122.600;2023-11-19T07:20:31;8.10;99.90
1361;DHT22;674;45.552;-122.600;2023-11-19T07:23:01;8.10;99.90
1361;DHT22;674;45.552;-122.600;2023-11-19T07:25:29;8.00;99.90
1361;DHT22;674;45.552;-122.600;2023-11-19T07:27:58;8.00;99.90
1361;DHT22;674;45.552;-122.600;2023-11-19T07:30:26;8.10;99.90
1361;DHT22;674;45.552;-122.600;2023-11-19T07:32:55;8.10;99.90
1361;DHT22;674;45.552;-122.600;2023-11-19T07:35:23;8.00;99.90
1361;DHT22;674;45.552;-122.600;2023-11-19T07:37:52;8.10;99.90
1361;DHT22;674;45.552;-122.600;2023-11-19T07:40:20;8.20;99.90
1361;DHT22;674;45.552;-122.600;2023-11-19T07:42:49;8.20;99.90
1361;DHT22;674;45.552;-122.600;2023-11-19T07:45:18;8.20;99.90
1361;DHT22;674;45.552;-122.600;2023-11-19T07:47:46;8.30;99.90
1361;DHT22;674;45.552;-122.600;2023-11-19T07:50:15;8.30;99.90
1361;DHT22;674;45.552;-122.600;2023-11-19T07:52:45;8.30;99.90
1361;DHT22;674;45.552;-122.600;2023-11-19T07:55:13;8.30;99.90
1361;DHT22;674;45.552;-122.600;2023-11-19T07:57:42;8.30;99.90
1361;DHT22;674;45.552;-122.600;2023-11-19T08:00:11;8.20;99.90
1361;DHT22;674;45.552;-122.600;2023-11-19T08:02:40;8.30;99.90
1361;DHT22;674;45.552;-122.600;2023-11-19T08:05:09;8.30;99.90
1361;DHT22;674;45.552;-122.600;2023-11-19T08:07:38;8.30;99.90
1361;DHT22;674;45.552;-122.600;2023-11-19T08:10:07;8.30;99.90
1361;DHT22;674;45.552;-122.600;2023-11-19T08:12:37;8.30;99.90
1361;DHT22;674;45.552;-122.600;2023-11-19T08:15:06;8.30;99.90
1361;DHT22;674;45.552;-122.600;2023-11-19T08:17:36;8.30;99.90
1361;DHT22;674;45.552;-122.600;2023-11-19T08:20:05;8.30;99.90
1361;DHT22;674;45.552;-122.600;2023-11-19T08:22:38;8.40;99.90
1361;DHT22;674;45.552;-122.600;2023-11-19T08:25:07;8.30;99.90
1361;DHT22;674;45.552;-122.600;2023-11-19T08:27:36;8.40;99.90
1361;DHT22;674;45.552;-122.600;2023-11-19T08:30:05;8.50;99.90
1361;DHT22;674;45.552;-122.600;2023-11-19T08:32:35;8.50;99.90
1361;DHT22;674;45.552;-122.600;2023-11-19T08:35:04;8.50;99.90
1361;DHT22;674;45.552;-122.600;2023-11-19T08:37:34;8.40;99.90
1361;DHT22;674;45.552;-122.600;2023-11-19T08:40:05;8.90;99.90
1361;DHT22;674;45.552;-122.600;2023-11-19T08:42:35;8.50;99.90
1361;DHT22;674;45.552;-122.600;2023-11-19T08:45:04;8.60;99.90
1361;DHT22;674;45.552;-122.600;2023-11-19T08:47:33;8.60;99.90
1361;DHT22;674;45.552;-122.600;2023-11-19T08:50:02;8.50;99.90
1361;DHT22;674;45.552;-122.600;2023-11-19T08:52:32;8.50;99.90
1361;DHT22;674;45.552;-122.600;2023-11-19T08:55:01;8.50;99.90
1361;DHT22;674;45.552;-122.600;2023-11-19T08:57:31;8.50;99.90
1361;DHT22;674;45.552;-122.600;2023-11-19T09:00:01;8.40;99.90
1361;DHT22;674;45.552;-122.600;2023-11-19T09:02:29;8.40;99.90
1361;DHT22;674;45.552;-122.600;2023-11-19T09:04:58;8.50;99.90
1361;DHT22;674;45.552;-122.600;2023-11-19T09:07:26;8.40;99.90
1361;DHT22;674;45.552;-122.600;2023-11-19T09:09:55;8.30;99.90
1361;DHT22;674;45.552;-122.600;2023-11-19T09:12:24;8.40;99.90
1361;DHT22;674;45.552;-122.600;2023-11-19T09:14:52;8.60;99.90
1361;DHT22;674;45.552;-122.600;2023-11-19T09:17:21;8.50;99.90
1361;DHT22;674;45.552;-122.600;2023-11-19T09:19:49;8.70;99.90
1361;DHT22;674;45.552;-122.600;2023-11-19T09:22:18;8.50;99.90
1361;DHT22;674;45.552;-122.600;2023-11-19T09:24:46;8.80;99.90
1361;DHT22;674;45.552;-122.600;2023-11-19T09:27:16;8.60;99.90
1361;DHT22;674;45.552;-122.600;2023-11-19T09:29:44;8.60;99.90
1361;DHT22;674;45.552;-122.600;2023-11-19T09:32:14;9.00;99.90
1361;DHT22;674;45.552;-122.600;2023-11-19T09:34:43;8.40;99.90
1361;DHT22;674;45.552;-122.600;2023-11-19T09:37:11;8.60;99.90
1361;DHT22;674;45.552;-122.600;2023-11-19T09:39:43;8.40;99.90
1361;DHT22;674;45.552;-122.600;2023-11-19T09:42:12;8.60;99.90
1361;DHT22;674;45.552;-122.600;2023-11-19T09:44:42;8.90;99.90
1361;DHT22;674;45.552;-122.600;2023-11-19T09:47:12;8.60;99.90
1361;DHT22;674;45.552;-122.600;2023-11-19T09:49:42;8.30;99.90
1361;DHT22;674;45.552;-122.600;2023-11-19T09:52:11;8.40;99.90
1361;DHT22;674;45.552;-122.600;2023-11-19T09:54:40;8.50;99.90
1361;DHT22;674;45.552;-122.600;2023-11-19T09:57:08;8.40;99.90
1361;DHT22;674;45.552;-122.600;2023-11-19T09:59:39;8.40;99.90
1361;DHT22;674;45.552;-122.600;2023-11-19T10:02:08;8.40;99.90
1361;DHT22;674;45.552;-122.600;2023-11-19T10:04:39;8.40;99.90
1361;DHT22;674;45.552;-122.600;2023-11-19T10:07:08;8.30;99.90
1361;DHT22;674;45.552;-122.600;2023-11-19T10:09:36;8.30;99.90
1361;DHT22;674;45.552;-122.600;2023-11-19T10:12:05;8.30;99.90
1361;DHT22;674;45.552;-122.600;2023-11-19T10:14:35;8.30;99.90
1361;DHT22;674;45.552;-122.600;2023-11-19T10:17:08;8.30;99.90
1361;DHT22;674;45.552;-122.600;2023-11-19T10:19:40;8.30;99.90
1361;DHT22;674;45.552;-122.600;2023-11-19T10:22:09;8.30;99.90
1361;DHT22;674;45.552;-122.600;2023-11-19T10:24:39;8.20;99.90
1361;DHT22;674;45.552;-122.600;2023-11-19T10:27:15;8.30;99.90
1361;DHT22;674;45.552;-122.600;2023-11-19T10:29:47;8.20;99.90
1361;DHT22;674;45.552;-122.600;2023-11-19T10:32:16;7.90;99.90
1361;DHT22;674;45.552;-122.600;2023-11-19T10:35:05;8.00;99.90
1361;DHT22;674;45.552;-122.600;2023-11-19T10:37:36;7.80;99.90
1361;DHT22;674;45.552;-122.600;2023-11-19T10:40:05;7.60;99.90
1361;DHT22;674;45.552;-122.600;2023-11-19T10:42:34;7.70;99.90
1361;DHT22;674;45.552;-122.600;2023-11-19T10:45:04;7.50;99.90
1361;DHT22;674;45.552;-122.600;2023-11-19T10:47:34;7.60;99.90
1361;DHT22;674;45.552;-122.600;2023-11-19T10:50:05;7.60;99.90
1361;DHT22;674;45.552;-122.600;2023-11-19T10:52:34;7.50;99.90
1361;DHT22;674;45.552;-122.600;2023-11-19T10:55:05;7.50;99.90
1361;DHT22;674;45.552;-122.600;2023-11-19T10:57:37;7.50;99.90
1361;DHT22;674;45.552;-122.600;2023-11-19T11:00:07;7.40;99.90
1361;DHT22;674;45.552;-122.600;2023-11-19T11:02:41;7.40;99.90
1361;DHT22;674;45.552;-122.600;2023-11-19T11:05:15;7.20;99.90
1361;DHT22;674;45.552;-122.600;2023-11-19T11:07:45;7.20;99.90
1361;DHT22;674;45.552;-122.600;2023-11-19T11:10:15;7.30;99.90
1361;DHT22;674;45.552;-122.600;2023-11-19T11:12:46;7.30;99.90
1361;DHT22;674;45.552;-122.600;2023-11-19T11:15:15;7.20;99.90
1361;DHT22;674;45.552;-122.600;2023-11-19T11:17:46;7.20;99.90
1361;DHT22;674;45.552;-122.600;2023-11-19T11:20:15;7.20;99.90
1361;DHT22;674;45.552;-122.600;2023-11-19T11:37:33;7.20;99.90
1361;DHT22;674;45.552;-122.600;2023-11-19T11:40:03;7.30;99.90
1361;DHT22;674;45.552;-122.600;2023-11-19T11:42:38;7.30;99.90
1361;DHT22;674;45.552;-122.600;2023-11-19T11:45:11;7.30;99.90
1361;DHT22;674;45.552;-122.600;2023-11-19T11:50:17;7.30;99.90
1361;DHT22;674;45.552;-122.600;2023-11-19T11:55:51;7.30;99.90
1361;DHT22;674;45.552;-122.600;2023-11-19T11:58:21;7.30;99.90
1361;DHT22;674;45.552;-122.600;2023-11-19T12:00:51;7.30;99.90
1361;DHT22;674;45.552;-122.600;2023-11-19T12:03:21;7.30;99.90
1361;DHT22;674;45.552;-122.600;2023-11-19T12:05:50;7.30;99.90
1361;DHT22;674;45.552;-122.600;2023-11-19T12:08:20;7.30;99.90
1361;DHT22;674;45.552;-122.600;2023-11-19T12:10:55;7.30;99.90
1361;DHT22;674;45.552;-122.600;2023-11-19T12:13:54;7.50;99.90
1361;DHT22;674;45.552;-122.600;2023-11-19T12:16:30;7.60;99.90
1361;DHT22;674;45.552;-122.600;2023-11-19T12:19:05;7.30;99.90
1361;DHT22;674;45.552;-122.600;2023-11-19T12:21:35;7.60;99.90
1361;DHT22;674;45.552;-122.600;2023-11-19T12:24:06;7.50;99.90
1361;DHT22;674;45.552;-122.600;2023-11-19T12:26:37;7.60;99.90
1361;DHT22;674;45.552;-122.600;2023-11-19T12:29:07;7.50;99.90
1361;DHT22;674;45.552;-122.600;2023-11-19T12:31:37;7.60;99.90
1361;DHT22;674;45.552;-122.600;2023-11-19T12:34:07;7.60;99.90
1361;DHT22;674;45.552;-122.600;2023-11-19T12:36:41;7.50;99.90
1361;DHT22;674;45.552;-122.600;2023-11-19T12:39:10;7.60;99.90
1361;DHT22;674;45.552;-122.600;2023-11-19T12:41:51;7.30;99.90
1361;DHT22;674;45.552;-122.600;2023-11-19T12:44:20;7.40;99.90
1361;DHT22;674;45.552;-122.600;2023-11-19T12:47:08;7.30;99.90
1361;DHT22;674;45.552;-122.600;2023-11-19T12:49:39;7.20;99.90
1361;DHT22;674;45.552;-122.600;2023-11-19T12:52:14;7.30;99.90
1361;DHT22;674;45.552;-122.600;2023-11-19T12:54:42;7.30;99.90
1361;DHT22;674;45.552;-122.600;2023-11-19T12:57:11;7.30;99.90
1361;DHT22;674;45.552;-122.600;2023-11-19T12:59:40;7.10;99.90
1361;DHT22;674;45.552;-122.600;2023-11-19T13:02:09;7.10;99.90
1361;DHT22;674;45.552;-122.600;2023-11-19T13:04:37;7.00;99.90
1361;DHT22;674;45.552;-122.600;2023-11-19T13:07:06;7.00;99.90
1361;DHT22;674;45.552;-122.600;2023-11-19T13:09:35;7.00;99.90
1361;DHT22;674;45.552;-122.600;2023-11-19T13:12:13;6.90;99.90
1361;DHT22;674;45.552;-122.600;2023-11-19T13:14:43;6.90;99.90
1361;DHT22;674;45.552;-122.600;2023-11-19T13:17:14;6.80;99.90
1361;DHT22;674;45.552;-122.600;2023-11-19T13:19:43;6.90;99.90
1361;DHT22;674;45.552;-122.600;2023-11-19T13:22:12;6.90;99.90
1361;DHT22;674;45.552;-122.600;2023-11-19T13:24:40;6.90;99.90
1361;DHT22;674;45.552;-122.600;2023-11-19T13:27:10;6.80;99.90
1361;DHT22;674;45.552;-122.600;2023-11-19T13:29:39;6.90;99.90
1361;DHT22;674;45.552;-122.600;2023-11-19T13:32:07;6.60;99.90
1361;DHT22;674;45.552;-122.600;2023-11-19T13:34:36;6.50;99.90
1361;DHT22;674;45.552;-122.600;2023-11-19T13:37:05;6.60;99.90
1361;DHT22;674;45.552;-122.600;2023-11-19T13:39:33;6.60;99.90
1361;DHT22;674;45.552;-122.600;2023-11-19T13:42:02;6.50;99.90
1361;DHT22;674;45.552;-122.600;2023-11-19T13:44:34;6.40;99.90
1361;DHT22;674;45.552;-122.600;2023-11-19T13:47:02;6.20;99.90
1361;DHT22;674;45.552;-122.600;2023-11-19T13:49:31;6.30;99.90
1361;DHT22;674;45.552;-122.600;2023-11-19T13:51:59;6.30;99.90
1361;DHT22;674;45.552;-122.600;2023-11-19T13:54:28;6.40;99.90
1361;DHT22;674;45.552;-122.600;2023-11-19T13:56:56;6.30;99.90
1361;DHT22;674;45.552;-122.600;2023-11-19T13:59:28;6.20;99.90
1361;DHT22;674;45.552;-122.600;2023-11-19T14:01:57;6.20;99.90
1361;DHT22;674;45.552;-122.600;2023-11-19T14:04:26;6.00;99.90
1361;DHT22;674;45.552;-122.600;2023-11-19T14:06:55;6.00;99.90
1361;DHT22;674;45.552;-122.600;2023-11-19T14:09:23;6.00;99.90
1361;DHT22;674;45.552;-122.600;2023-11-19T14:11:52;6.20;99.90
1361;DHT22;674;45.552;-122.600;2023-11-19T14:14:21;6.00;99.90
1361;DHT22;674;45.552;-122.600;2023-11-19T14:16:49;6.20;99.90
1361;DHT22;674;45.552;-122.600;2023-11-19T14:19:18;6.10;99.90
1361;DHT22;674;45.552;-122.600;2023-11-19T14:21:46;6.30;99.90
1361;DHT22;674;45.552;-122.600;2023-11-19T14:24:15;6.30;99.90
1361;DHT22;674;45.552;-122.600;2023-11-19T14:26:46;6.30;99.90
1361;DHT22;674;45.552;-122.600;2023-11-19T14:29:20;6.20;99.90
1361;DHT22;674;45.552;-122.600;2023-11-19T14:31:48;6.20;99.90
1361;DHT22;674;45.552;-122.600;2023-11-19T14:34:17;6.20;99.90
1361;DHT22;674;45.552;-122.600;2023-11-19T14:36:45;6.30;99.90
1361;DHT22;674;45.552;-122.600;2023-11-19T14:39:15;6.00;99.90
1361;DHT22;674;45.552;-122.600;2023-11-19T14:41:44;6.10;99.90
1361;DHT22;674;45.552;-122.600;2023-11-19T14:44:12;6.20;99.90
1361;DHT22;674;45.552;-122.600;2023-11-19T14:46:41;6.00;99.90
1361;DHT22;674;45.552;-122.600;2023-11-19T14:49:10;6.00;99.90
1361;DHT22;674;45.552;-122.600;2023-11-19T14:51:38;5.90;99.90
1361;DHT22;674;45.552;-122.600;2023-11-19T14:54:07;6.20;99.90
1361;DHT22;674;45.552;-122.600;2023-11-19T14:56:35;6.00;99.90
1361;DHT22;674;45.552;-122.600;2023-11-19T14:59:06;6.00;99.90
1361;DHT22;674;45.552;-122.600;2023-11-19T15:01:35;5.90;99.90
1361;DHT22;674;45.552;-122.600;2023-11-19T15:04:04;5.90;99.90
1361;DHT22;674;45.552;-122.600;2023-11-19T15:06:33;5.90;99.90
1361;DHT22;674;45.552;-122.600;2023-11-19T15:09:02;5.90;99.90
1361;DHT22;674;45.552;-122.600;2023-11-19T15:11:30;6.00;99.90
1361;DHT22;674;45.552;-122.600;2023-11-19T15:13:59;5.80;99.90
1361;DHT22;674;45.552;-122.600;2023-11-19T15:16:28;6.00;99.90
1361;DHT22;674;45.552;-122.600;2023-11-19T15:19:02;5.90;99.90
1361;DHT22;674;45.552;-122.600;2023-11-19T15:21:31;5.90;99.90
1361;DHT22;674;45.552;-122.600;2023-11-19T15:24:01;5.80;99.90
1361;DHT22;674;45.552;-122.600;2023-11-19T15:26:33;5.80;99.90
1361;DHT22;674;45.552;-122.600;2023-11-19T15:29:02;6.00;99.90
1361;DHT22;674;45.552;-122.600;2023-11-19T15:31:32;5.90;99.90
1361;DHT22;674;45.552;-122.600;2023-11-19T15:34:01;6.00;99.90
1361;DHT22;674;45.552;-122.600;2023-11-19T15:36:30;6.00;99.90
1361;DHT22;674;45.552;-122.600;2023-11-19T15:39:00;5.80;99.90
1361;DHT22;674;45.552;-122.600;2023-11-19T15:41:28;5.80;99.90
1361;DHT22;674;45.552;-122.600;2023-11-19T15:43:58;5.90;99.90
1361;DHT22;674;45.552;-122.600;2023-11-19T15:46:27;6.00;99.90
1361;DHT22;674;45.552;-122.600;2023-11-19T15:48:55;6.00;99.90
1361;DHT22;674;45.552;-122.600;2023-11-19T15:51:24;6.10;99.90
1361;DHT22;674;45.552;-122.600;2023-11-19T15:53:52;5.90;99.90
1361;DHT22;674;45.552;-122.600;2023-11-19T15:56:21;5.90;99.90
1361;DHT22;674;45.552;-122.600;2023-11-19T15:58:49;5.90;99.90
1361;DHT22;674;45.552;-122.600;2023-11-19T16:01:18;6.00;99.90
1361;DHT22;674;45.552;-122.600;2023-11-19T16:03:47;6.00;99.90
1361;DHT22;674;45.552;-122.600;2023-11-19T16:06:18;6.30;99.90
1361;DHT22;674;45.552;-122.600;2023-11-19T16:08:47;6.20;99.90
1361;DHT22;674;45.552;-122.600;2023-11-19T16:11:16;6.20;99.90
1361;DHT22;674;45.552;-122.600;2023-11-19T16:13:45;6.20;99.90
1361;DHT22;674;45.552;-122.600;2023-11-19T16:16:13;6.30;99.90
1361;DHT22;674;45.552;-122.600;2023-11-19T16:18:42;6.20;99.90
1361;DHT22;674;45.552;-122.600;2023-11-19T16:21:11;6.30;99.90
1361;DHT22;674;45.552;-122.600;2023-11-19T16:23:39;6.40;99.90